Αρχική σελίδα
METAR-TAF:

METAR-TAF

Αεροδρόμια :

Διεθνές Αεροδρόμιο του Μπαχρέιν

Μπαχρέιν, Μπαχρέιν

γεωγραφικό πλάτος: 26-16N, γεωγραφικό μήκος: 050-39E, υψόμετρο: 2 μ

Παρών καιρός

Η αναφορά έγινε 12 λεπτά πριν, στις 21:30 UTC
Άνεμος 7 kt από Δ, μεταβλητός μεταξύ Δ/ΝΔ και
Θερμοκρασία 34°C
Υγρασία 34%
Πίεση 1000 hPa
Ορατότητα: 6000 μ
Καθαρός ουρανός

METAR: OBBI 232130Z 27007KT 240V310 6000 SKC 34/16 Q1000 NOSIG

Χρόνος: 00:42 (21:42 UTC)

Πρόγνωση Καιρού

Η αναφορά έγινε 4 ώρες και 42 λεπτά πριν, στις 17:00 UTC
Η πρόγνωση ισχύει από τις 23 στις 18 UTC έως τις 25 στις 00 UTC
Άνεμος 10 kt από Δ/BΔ
Ορατότητα: 8000 μ
Καθιστάμενος
από 24 στις 04 UTC έως τις 24 στις 06 UTC
Άνεμος 15 kt από Β/BΔ με ριπές μέχρι 25 kt
Καθιστάμενος
από 24 στις 20 UTC έως τις 24 στις 22 UTC
Άνεμος 7 kt από Δ/BΔ

TAF: OBBI 231700Z 2318/2500 29010KT 8000 NSC BECMG 2404/2406 34015G25KT BECMG 2420/2422 30007KT

Μετεωρολογικές αναφορές και προγνώσεις για περισσότερα από 4000 αεροδρόμια (δελτία METAR και TAF).

Οι διαθέσιμοι σταθμοί απεικονίζονται στο χάρτη με κίτρινες και κόκκινες κουκκίδες.

Μετακινήστε το ποντίκι πάνω από τις κουκκίδες για να δείτε το όνομα του σταθμού.

Στη συνέχεια, κάντε κλικ για να δείτε τις μετεωρολογικές αναφορές και τις προγνώσεις καιρού.

Για να αλλάξετε το χάρτη: κάντε κλικ στα πράσινα κουμπιά με τον μαύρο σταυρό για να ζουμάρετε, στο πράσινο κουμπί με την παύλα για να αφαιρέσετε το ζουμ ή στα πράσινα βέλη για να αντιπαραβάλλετε χάρτες.


METAR-TAF: